sensor_id;sensor_type;location;lat;lon;timestamp;temperature;humidity
29237;DHT22;16266;50.866;4.398;2023-04-03T00:00:30;3.60;99.90
29237;DHT22;16266;50.866;4.398;2023-04-03T00:02:57;3.50;99.90
29237;DHT22;16266;50.866;4.398;2023-04-03T00:05:23;3.50;99.90
29237;DHT22;16266;50.866;4.398;2023-04-03T00:07:48;3.60;99.90
29237;DHT22;16266;50.866;4.398;2023-04-03T00:10:15;3.60;99.90
29237;DHT22;16266;50.866;4.398;2023-04-03T00:12:41;3.50;99.90
29237;DHT22;16266;50.866;4.398;2023-04-03T00:15:07;3.40;99.90
29237;DHT22;16266;50.866;4.398;2023-04-03T00:17:33;3.40;99.90
29237;DHT22;16266;50.866;4.398;2023-04-03T00:19:59;3.40;99.90
29237;DHT22;16266;50.866;4.398;2023-04-03T00:22:24;3.40;99.90
29237;DHT22;16266;50.866;4.398;2023-04-03T00:24:52;3.30;99.90
29237;DHT22;16266;50.866;4.398;2023-04-03T00:27:17;3.30;99.90
29237;DHT22;16266;50.866;4.398;2023-04-03T00:29:43;3.30;99.90
29237;DHT22;16266;50.866;4.398;2023-04-03T00:32:09;3.20;99.90
29237;DHT22;16266;50.866;4.398;2023-04-03T00:34:34;3.30;99.90
29237;DHT22;16266;50.866;4.398;2023-04-03T00:37:00;3.20;99.90
29237;DHT22;16266;50.866;4.398;2023-04-03T00:39:26;3.30;99.90
29237;DHT22;16266;50.866;4.398;2023-04-03T00:41:51;3.20;99.90
29237;DHT22;16266;50.866;4.398;2023-04-03T00:46:46;3.20;99.90
29237;DHT22;16266;50.866;4.398;2023-04-03T00:49:12;3.20;99.90
29237;DHT22;16266;50.866;4.398;2023-04-03T00:51:38;3.20;99.90
29237;DHT22;16266;50.866;4.398;2023-04-03T00:54:05;3.20;99.90
29237;DHT22;16266;50.866;4.398;2023-04-03T00:56:32;3.10;99.90
29237;DHT22;16266;50.866;4.398;2023-04-03T00:59:05;3.10;99.90
29237;DHT22;16266;50.866;4.398;2023-04-03T01:01:32;3.10;99.90
29237;DHT22;16266;50.866;4.398;2023-04-03T01:04:01;3.10;99.90
29237;DHT22;16266;50.866;4.398;2023-04-03T01:06:30;3.10;99.90
29237;DHT22;16266;50.866;4.398;2023-04-03T01:08:57;3.10;99.90
29237;DHT22;16266;50.866;4.398;2023-04-03T01:11:24;3.00;99.90
29237;DHT22;16266;50.866;4.398;2023-04-03T01:13:50;2.90;99.90
29237;DHT22;16266;50.866;4.398;2023-04-03T01:16:15;3.00;99.90
29237;DHT22;16266;50.866;4.398;2023-04-03T01:18:42;3.00;99.90
29237;DHT22;16266;50.866;4.398;2023-04-03T01:21:14;2.90;99.90
29237;DHT22;16266;50.866;4.398;2023-04-03T01:26:19;2.90;99.90
29237;DHT22;16266;50.866;4.398;2023-04-03T01:28:45;2.90;99.90
29237;DHT22;16266;50.866;4.398;2023-04-03T01:33:47;2.80;99.90
29237;DHT22;16266;50.866;4.398;2023-04-03T01:36:22;2.80;99.90
29237;DHT22;16266;50.866;4.398;2023-04-03T01:38:50;2.70;99.90
29237;DHT22;16266;50.866;4.398;2023-04-03T01:41:16;2.80;99.90
29237;DHT22;16266;50.866;4.398;2023-04-03T01:43:43;2.70;99.90
29237;DHT22;16266;50.866;4.398;2023-04-03T01:46:09;2.80;99.90
29237;DHT22;16266;50.866;4.398;2023-04-03T01:48:34;2.70;99.90
29237;DHT22;16266;50.866;4.398;2023-04-03T01:51:00;2.60;99.90
29237;DHT22;16266;50.866;4.398;2023-04-03T01:53:26;2.70;99.90
29237;DHT22;16266;50.866;4.398;2023-04-03T01:55:51;2.70;99.90
29237;DHT22;16266;50.866;4.398;2023-04-03T01:58:17;2.60;99.90
29237;DHT22;16266;50.866;4.398;2023-04-03T02:00:43;2.60;99.90
29237;DHT22;16266;50.866;4.398;2023-04-03T02:03:08;2.40;99.90
29237;DHT22;16266;50.866;4.398;2023-04-03T02:05:34;2.40;99.90
29237;DHT22;16266;50.866;4.398;2023-04-03T02:08:00;2.40;99.90
29237;DHT22;16266;50.866;4.398;2023-04-03T02:10:26;2.40;99.90
29237;DHT22;16266;50.866;4.398;2023-04-03T02:12:52;2.40;99.90
29237;DHT22;16266;50.866;4.398;2023-04-03T02:15:18;2.50;99.90
29237;DHT22;16266;50.866;4.398;2023-04-03T02:17:43;2.50;99.90
29237;DHT22;16266;50.866;4.398;2023-04-03T02:20:10;2.50;99.90
29237;DHT22;16266;50.866;4.398;2023-04-03T02:22:36;2.60;99.90
29237;DHT22;16266;50.866;4.398;2023-04-03T02:25:02;2.50;99.90
29237;DHT22;16266;50.866;4.398;2023-04-03T02:27:28;2.50;99.90
29237;DHT22;16266;50.866;4.398;2023-04-03T02:29:53;2.40;99.90
29237;DHT22;16266;50.866;4.398;2023-04-03T02:32:19;2.40;99.90
29237;DHT22;16266;50.866;4.398;2023-04-03T02:34:45;2.40;99.90
29237;DHT22;16266;50.866;4.398;2023-04-03T02:37:11;2.40;99.90
29237;DHT22;16266;50.866;4.398;2023-04-03T02:39:36;2.40;99.90
29237;DHT22;16266;50.866;4.398;2023-04-03T02:42:02;2.30;99.90
29237;DHT22;16266;50.866;4.398;2023-04-03T02:44:28;2.30;99.90
29237;DHT22;16266;50.866;4.398;2023-04-03T02:46:53;2.30;99.90
29237;DHT22;16266;50.866;4.398;2023-04-03T02:49:19;2.30;99.90
29237;DHT22;16266;50.866;4.398;2023-04-03T02:51:45;2.30;99.90
29237;DHT22;16266;50.866;4.398;2023-04-03T02:54:11;2.30;99.90
29237;DHT22;16266;50.866;4.398;2023-04-03T02:56:37;2.30;99.90
29237;DHT22;16266;50.866;4.398;2023-04-03T02:59:02;2.30;99.90
29237;DHT22;16266;50.866;4.398;2023-04-03T03:01:28;2.30;99.90
29237;DHT22;16266;50.866;4.398;2023-04-03T03:03:57;2.30;99.90
29237;DHT22;16266;50.866;4.398;2023-04-03T03:06:22;2.20;99.90
29237;DHT22;16266;50.866;4.398;2023-04-03T03:08:48;2.20;99.90
29237;DHT22;16266;50.866;4.398;2023-04-03T03:11:14;2.20;99.90
29237;DHT22;16266;50.866;4.398;2023-04-03T03:13:40;2.20;99.90
29237;DHT22;16266;50.866;4.398;2023-04-03T03:16:06;2.20;99.90
29237;DHT22;16266;50.866;4.398;2023-04-03T03:18:32;2.20;99.90
29237;DHT22;16266;50.866;4.398;2023-04-03T03:20:59;2.10;99.90
29237;DHT22;16266;50.866;4.398;2023-04-03T03:23:26;2.10;99.90
29237;DHT22;16266;50.866;4.398;2023-04-03T03:25:56;2.00;99.90
29237;DHT22;16266;50.866;4.398;2023-04-03T03:28:23;2.10;99.90
29237;DHT22;16266;50.866;4.398;2023-04-03T03:30:48;2.00;99.90
29237;DHT22;16266;50.866;4.398;2023-04-03T03:33:14;2.00;99.90
29237;DHT22;16266;50.866;4.398;2023-04-03T03:35:40;1.90;99.90
29237;DHT22;16266;50.866;4.398;2023-04-03T03:38:06;2.00;99.90
29237;DHT22;16266;50.866;4.398;2023-04-03T03:40:31;2.10;99.90
29237;DHT22;16266;50.866;4.398;2023-04-03T03:42:57;2.10;99.90
29237;DHT22;16266;50.866;4.398;2023-04-03T03:45:23;2.00;99.90
29237;DHT22;16266;50.866;4.398;2023-04-03T03:47:48;2.00;99.90
29237;DHT22;16266;50.866;4.398;2023-04-03T03:50:14;2.00;99.90
29237;DHT22;16266;50.866;4.398;2023-04-03T03:52:40;1.90;99.90
29237;DHT22;16266;50.866;4.398;2023-04-03T03:55:06;1.80;99.90
29237;DHT22;16266;50.866;4.398;2023-04-03T03:57:32;1.90;99.90
29237;DHT22;16266;50.866;4.398;2023-04-03T03:59:58;1.90;99.90
29237;DHT22;16266;50.866;4.398;2023-04-03T04:02:23;1.90;99.90
29237;DHT22;16266;50.866;4.398;2023-04-03T04:04:49;1.90;99.90
29237;DHT22;16266;50.866;4.398;2023-04-03T04:07:15;1.80;99.90
29237;DHT22;16266;50.866;4.398;2023-04-03T04:09:41;1.90;99.90
29237;DHT22;16266;50.866;4.398;2023-04-03T04:12:06;1.90;99.90
29237;DHT22;16266;50.866;4.398;2023-04-03T04:14:32;1.80;99.90
29237;DHT22;16266;50.866;4.398;2023-04-03T04:16:58;1.90;99.90
29237;DHT22;16266;50.866;4.398;2023-04-03T04:19:23;1.90;99.90
29237;DHT22;16266;50.866;4.398;2023-04-03T04:21:49;1.80;99.90
29237;DHT22;16266;50.866;4.398;2023-04-03T04:24:15;1.90;99.90
29237;DHT22;16266;50.866;4.398;2023-04-03T04:26:41;1.80;99.90
29237;DHT22;16266;50.866;4.398;2023-04-03T04:29:09;1.80;99.90
29237;DHT22;16266;50.866;4.398;2023-04-03T04:31:35;1.80;99.90
29237;DHT22;16266;50.866;4.398;2023-04-03T04:34:01;1.80;99.90
29237;DHT22;16266;50.866;4.398;2023-04-03T04:36:27;1.80;99.90
29237;DHT22;16266;50.866;4.398;2023-04-03T04:38:53;1.90;99.90
29237;DHT22;16266;50.866;4.398;2023-04-03T04:41:20;1.90;99.90
29237;DHT22;16266;50.866;4.398;2023-04-03T04:43:48;1.90;99.90
29237;DHT22;16266;50.866;4.398;2023-04-03T04:46:14;1.80;99.90
29237;DHT22;16266;50.866;4.398;2023-04-03T04:48:39;1.80;99.90
29237;DHT22;16266;50.866;4.398;2023-04-03T04:51:06;1.80;99.90
29237;DHT22;16266;50.866;4.398;2023-04-03T04:53:32;1.80;99.90
29237;DHT22;16266;50.866;4.398;2023-04-03T04:55:58;1.80;99.90
29237;DHT22;16266;50.866;4.398;2023-04-03T04:58:24;1.90;99.90
29237;DHT22;16266;50.866;4.398;2023-04-03T05:00:49;1.80;99.90
29237;DHT22;16266;50.866;4.398;2023-04-03T05:03:15;1.80;99.90
29237;DHT22;16266;50.866;4.398;2023-04-03T05:05:41;1.70;99.90
29237;DHT22;16266;50.866;4.398;2023-04-03T05:08:07;1.70;99.90
29237;DHT22;16266;50.866;4.398;2023-04-03T05:10:33;1.70;99.90
29237;DHT22;16266;50.866;4.398;2023-04-03T05:12:59;1.80;99.90
29237;DHT22;16266;50.866;4.398;2023-04-03T05:15:25;1.80;99.90
29237;DHT22;16266;50.866;4.398;2023-04-03T05:17:51;1.80;99.90
29237;DHT22;16266;50.866;4.398;2023-04-03T05:20:17;1.90;99.90
29237;DHT22;16266;50.866;4.398;2023-04-03T05:22:42;1.80;99.90
29237;DHT22;16266;50.866;4.398;2023-04-03T05:25:09;1.80;99.90
29237;DHT22;16266;50.866;4.398;2023-04-03T05:27:35;1.90;99.90
29237;DHT22;16266;50.866;4.398;2023-04-03T05:30:02;1.90;99.90
29237;DHT22;16266;50.866;4.398;2023-04-03T05:32:28;1.90;99.90
29237;DHT22;16266;50.866;4.398;2023-04-03T05:34:54;2.00;99.90
29237;DHT22;16266;50.866;4.398;2023-04-03T05:37:20;2.00;99.90
29237;DHT22;16266;50.866;4.398;2023-04-03T05:39:45;2.00;99.90
29237;DHT22;16266;50.866;4.398;2023-04-03T05:42:11;2.10;99.90
29237;DHT22;16266;50.866;4.398;2023-04-03T05:44:38;2.10;99.90
29237;DHT22;16266;50.866;4.398;2023-04-03T05:47:04;2.30;99.90
29237;DHT22;16266;50.866;4.398;2023-04-03T05:49:30;2.40;99.90
29237;DHT22;16266;50.866;4.398;2023-04-03T05:51:55;2.60;99.90
29237;DHT22;16266;50.866;4.398;2023-04-03T05:54:26;3.20;99.90
29237;DHT22;16266;50.866;4.398;2023-04-03T05:56:53;4.00;99.90
29237;DHT22;16266;50.866;4.398;2023-04-03T05:59:20;5.10;99.90
29237;DHT22;16266;50.866;4.398;2023-04-03T06:01:46;6.00;99.90
29237;DHT22;16266;50.866;4.398;2023-04-03T06:04:12;7.00;99.90
29237;DHT22;16266;50.866;4.398;2023-04-03T06:06:53;7.90;99.90
29237;DHT22;16266;50.866;4.398;2023-04-03T06:09:19;8.60;99.90
29237;DHT22;16266;50.866;4.398;2023-04-03T06:11:45;8.80;99.90
29237;DHT22;16266;50.866;4.398;2023-04-03T06:14:11;9.40;99.90
29237;DHT22;16266;50.866;4.398;2023-04-03T06:16:37;9.70;99.90
29237;DHT22;16266;50.866;4.398;2023-04-03T06:19:03;10.10;99.90
29237;DHT22;16266;50.866;4.398;2023-04-03T06:21:29;10.70;99.90
29237;DHT22;16266;50.866;4.398;2023-04-03T06:23:55;11.30;99.90
29237;DHT22;16266;50.866;4.398;2023-04-03T06:26:21;12.00;99.90
29237;DHT22;16266;50.866;4.398;2023-04-03T06:28:47;12.80;99.90
29237;DHT22;16266;50.866;4.398;2023-04-03T06:31:13;13.70;99.90
29237;DHT22;16266;50.866;4.398;2023-04-03T06:33:39;14.30;99.90
29237;DHT22;16266;50.866;4.398;2023-04-03T06:36:05;15.00;99.90
29237;DHT22;16266;50.866;4.398;2023-04-03T06:38:32;15.70;99.90
29237;DHT22;16266;50.866;4.398;2023-04-03T06:40:58;16.40;99.90
29237;DHT22;16266;50.866;4.398;2023-04-03T06:43:24;17.10;99.90
29237;DHT22;16266;50.866;4.398;2023-04-03T06:45:50;17.60;99.90
29237;DHT22;16266;50.866;4.398;2023-04-03T06:48:16;18.00;99.30
29237;DHT22;16266;50.866;4.398;2023-04-03T06:50:42;18.00;94.80
29237;DHT22;16266;50.866;4.398;2023-04-03T06:53:08;17.20;98.00
29237;DHT22;16266;50.866;4.398;2023-04-03T06:55:34;16.10;95.50
29237;DHT22;16266;50.866;4.398;2023-04-03T06:58:00;15.50;97.00
29237;DHT22;16266;50.866;4.398;2023-04-03T07:00:26;14.40;98.90
29237;DHT22;16266;50.866;4.398;2023-04-03T07:02:51;14.30;99.90
29237;DHT22;16266;50.866;4.398;2023-04-03T07:05:17;14.10;99.90
29237;DHT22;16266;50.866;4.398;2023-04-03T07:07:43;14.50;99.90
29237;DHT22;16266;50.866;4.398;2023-04-03T07:10:09;14.00;99.90
29237;DHT22;16266;50.866;4.398;2023-04-03T07:12:35;14.40;99.90
29237;DHT22;16266;50.866;4.398;2023-04-03T07:15:01;14.90;99.00
29237;DHT22;16266;50.866;4.398;2023-04-03T07:17:28;15.30;99.90
29237;DHT22;16266;50.866;4.398;2023-04-03T07:19:54;15.70;97.70
29237;DHT22;16266;50.866;4.398;2023-04-03T07:22:20;15.70;97.80
29237;DHT22;16266;50.866;4.398;2023-04-03T07:24:45;16.00;95.60
29237;DHT22;16266;50.866;4.398;2023-04-03T07:27:11;16.20;93.80
29237;DHT22;16266;50.866;4.398;2023-04-03T07:29:38;15.20;94.70
29237;DHT22;16266;50.866;4.398;2023-04-03T07:32:05;15.40;95.70
29237;DHT22;16266;50.866;4.398;2023-04-03T07:34:31;15.20;95.40
29237;DHT22;16266;50.866;4.398;2023-04-03T07:36:58;14.90;95.70
29237;DHT22;16266;50.866;4.398;2023-04-03T07:39:26;15.30;95.50
29237;DHT22;16266;50.866;4.398;2023-04-03T07:41:53;15.30;95.30
29237;DHT22;16266;50.866;4.398;2023-04-03T07:44:20;14.90;95.00
29237;DHT22;16266;50.866;4.398;2023-04-03T07:46:46;14.90;96.10
29237;DHT22;16266;50.866;4.398;2023-04-03T07:49:14;14.90;96.80
29237;DHT22;16266;50.866;4.398;2023-04-03T07:51:39;15.00;98.70
29237;DHT22;16266;50.866;4.398;2023-04-03T07:54:06;14.80;95.80
29237;DHT22;16266;50.866;4.398;2023-04-03T07:56:32;15.40;95.40
29237;DHT22;16266;50.866;4.398;2023-04-03T07:58:58;15.00;94.40
29237;DHT22;16266;50.866;4.398;2023-04-03T08:01:24;15.10;95.20
29237;DHT22;16266;50.866;4.398;2023-04-03T08:03:50;15.60;93.50
29237;DHT22;16266;50.866;4.398;2023-04-03T08:06:16;16.00;93.40
29237;DHT22;16266;50.866;4.398;2023-04-03T08:08:41;16.20;92.40
29237;DHT22;16266;50.866;4.398;2023-04-03T08:11:07;16.70;90.70
29237;DHT22;16266;50.866;4.398;2023-04-03T08:13:34;17.20;90.80
29237;DHT22;16266;50.866;4.398;2023-04-03T08:16:12;17.70;87.60
29237;DHT22;16266;50.866;4.398;2023-04-03T08:18:38;18.40;85.10
29237;DHT22;16266;50.866;4.398;2023-04-03T08:21:11;18.30;81.10
29237;DHT22;16266;50.866;4.398;2023-04-03T08:23:38;18.80;82.70
29237;DHT22;16266;50.866;4.398;2023-04-03T08:26:22;19.00;80.50
29237;DHT22;16266;50.866;4.398;2023-04-03T08:28:48;19.10;73.60
29237;DHT22;16266;50.866;4.398;2023-04-03T08:31:16;18.60;72.90
29237;DHT22;16266;50.866;4.398;2023-04-03T08:33:44;17.60;77.10
29237;DHT22;16266;50.866;4.398;2023-04-03T08:36:24;17.70;77.60
29237;DHT22;16266;50.866;4.398;2023-04-03T08:38:52;18.20;81.50
29237;DHT22;16266;50.866;4.398;2023-04-03T08:46:40;18.70;71.90
29237;DHT22;16266;50.866;4.398;2023-04-03T08:49:17;18.30;72.40
29237;DHT22;16266;50.866;4.398;2023-04-03T08:51:47;19.00;72.70
29237;DHT22;16266;50.866;4.398;2023-04-03T08:54:29;19.00;73.90
29237;DHT22;16266;50.866;4.398;2023-04-03T08:56:56;19.80;66.30
29237;DHT22;16266;50.866;4.398;2023-04-03T08:59:29;19.80;62.60
29237;DHT22;16266;50.866;4.398;2023-04-03T09:01:57;19.00;63.20
29237;DHT22;16266;50.866;4.398;2023-04-03T09:04:28;18.60;64.60
29237;DHT22;16266;50.866;4.398;2023-04-03T09:07:06;19.70;66.10
29237;DHT22;16266;50.866;4.398;2023-04-03T09:09:39;18.90;61.50
29237;DHT22;16266;50.866;4.398;2023-04-03T09:12:15;19.20;63.70
29237;DHT22;16266;50.866;4.398;2023-04-03T09:20:19;18.80;58.80
29237;DHT22;16266;50.866;4.398;2023-04-03T09:22:46;18.80;57.50
29237;DHT22;16266;50.866;4.398;2023-04-03T09:25:20;18.70;62.80
29237;DHT22;16266;50.866;4.398;2023-04-03T09:27:47;19.30;60.70
29237;DHT22;16266;50.866;4.398;2023-04-03T09:30:19;19.00;58.90
29237;DHT22;16266;50.866;4.398;2023-04-03T09:32:48;19.30;57.70
29237;DHT22;16266;50.866;4.398;2023-04-03T09:37:46;21.00;57.00
29237;DHT22;16266;50.866;4.398;2023-04-03T09:40:38;20.70;51.90
29237;DHT22;16266;50.866;4.398;2023-04-03T09:45:43;19.70;50.80
29237;DHT22;16266;50.866;4.398;2023-04-03T09:50:36;18.80;51.30
29237;DHT22;16266;50.866;4.398;2023-04-03T09:53:07;18.80;52.90
29237;DHT22;16266;50.866;4.398;2023-04-03T09:55:33;19.20;53.80
29237;DHT22;16266;50.866;4.398;2023-04-03T09:58:29;19.70;53.40
29237;DHT22;16266;50.866;4.398;2023-04-03T10:01:01;20.60;49.80
29237;DHT22;16266;50.866;4.398;2023-04-03T10:03:35;20.00;47.40
29237;DHT22;16266;50.866;4.398;2023-04-03T10:06:03;19.20;47.80
29237;DHT22;16266;50.866;4.398;2023-04-03T10:08:34;19.30;47.80
29237;DHT22;16266;50.866;4.398;2023-04-03T10:11:09;19.00;50.80
29237;DHT22;16266;50.866;4.398;2023-04-03T10:13:35;19.30;48.50
29237;DHT22;16266;50.866;4.398;2023-04-03T10:16:12;18.80;48.20
29237;DHT22;16266;50.866;4.398;2023-04-03T10:18:49;19.30;48.40
29237;DHT22;16266;50.866;4.398;2023-04-03T10:24:10;20.50;45.60
29237;DHT22;16266;50.866;4.398;2023-04-03T10:33:05;18.90;44.50
29237;DHT22;16266;50.866;4.398;2023-04-03T10:35:18;18.30;45.20
29237;DHT22;16266;50.866;4.398;2023-04-03T10:43:06;19.40;41.90
29237;DHT22;16266;50.866;4.398;2023-04-03T10:56:44;18.60;41.90
29237;DHT22;16266;50.866;4.398;2023-04-03T10:59:24;18.00;38.60
29237;DHT22;16266;50.866;4.398;2023-04-03T11:02:48;17.90;38.40
29237;DHT22;16266;50.866;4.398;2023-04-03T11:04:50;17.20;38.60
29237;DHT22;16266;50.866;4.398;2023-04-03T11:07:24;16.40;41.20
29237;DHT22;16266;50.866;4.398;2023-04-03T11:10:02;17.00;40.40
29237;DHT22;16266;50.866;4.398;2023-04-03T11:12:44;17.20;37.10
29237;DHT22;16266;50.866;4.398;2023-04-03T11:15:17;16.70;38.10
29237;DHT22;16266;50.866;4.398;2023-04-03T11:18:37;17.60;40.90
29237;DHT22;16266;50.866;4.398;2023-04-03T11:21:06;17.90;42.10
29237;DHT22;16266;50.866;4.398;2023-04-03T11:23:34;17.30;44.40
29237;DHT22;16266;50.866;4.398;2023-04-03T11:26:29;17.80;47.30
29237;DHT22;16266;50.866;4.398;2023-04-03T11:29:02;18.20;44.40
29237;DHT22;16266;50.866;4.398;2023-04-03T11:34:42;17.70;42.70
29237;DHT22;16266;50.866;4.398;2023-04-03T11:37:46;18.10;42.70
29237;DHT22;16266;50.866;4.398;2023-04-03T11:42:45;18.00;38.90
29237;DHT22;16266;50.866;4.398;2023-04-03T11:50:58;17.80;37.10
29237;DHT22;16266;50.866;4.398;2023-04-03T11:53:28;18.20;38.80
29237;DHT22;16266;50.866;4.398;2023-04-03T11:56:02;18.50;38.70
29237;DHT22;16266;50.866;4.398;2023-04-03T11:58:30;19.50;40.10
29237;DHT22;16266;50.866;4.398;2023-04-03T12:01:00;20.60;38.40
29237;DHT22;16266;50.866;4.398;2023-04-03T12:24:00;16.70;30.30
29237;DHT22;16266;50.866;4.398;2023-04-03T12:26:36;16.70;30.40
29237;DHT22;16266;50.866;4.398;2023-04-03T12:45:25;16.90;32.80
29237;DHT22;16266;50.866;4.398;2023-04-03T12:47:53;16.80;30.50
29237;DHT22;16266;50.866;4.398;2023-04-03T12:50:25;16.00;30.40
29237;DHT22;16266;50.866;4.398;2023-04-03T12:53:10;16.20;31.40
29237;DHT22;16266;50.866;4.398;2023-04-03T12:55:37;16.40;31.30
29237;DHT22;16266;50.866;4.398;2023-04-03T12:58:15;16.00;29.90
29237;DHT22;16266;50.866;4.398;2023-04-03T13:00:42;15.90;30.70
29237;DHT22;16266;50.866;4.398;2023-04-03T13:03:22;15.80;32.40
29237;DHT22;16266;50.866;4.398;2023-04-03T13:05:49;15.60;31.00
29237;DHT22;16266;50.866;4.398;2023-04-03T13:08:16;15.00;30.90
29237;DHT22;16266;50.866;4.398;2023-04-03T13:11:02;15.50;31.70
29237;DHT22;16266;50.866;4.398;2023-04-03T13:13:28;15.20;30.40
29237;DHT22;16266;50.866;4.398;2023-04-03T13:15:54;15.30;30.30
29237;DHT22;16266;50.866;4.398;2023-04-03T13:20:53;15.10;29.70
29237;DHT22;16266;50.866;4.398;2023-04-03T13:23:21;15.20;30.00
29237;DHT22;16266;50.866;4.398;2023-04-03T13:25:48;15.00;30.30
29237;DHT22;16266;50.866;4.398;2023-04-03T13:28:18;14.90;30.40
29237;DHT22;16266;50.866;4.398;2023-04-03T13:33:32;14.40;29.10
29237;DHT22;16266;50.866;4.398;2023-04-03T13:38:31;14.30;29.40
29237;DHT22;16266;50.866;4.398;2023-04-03T13:41:01;14.20;29.40
29237;DHT22;16266;50.866;4.398;2023-04-03T13:43:32;13.80;30.80
29237;DHT22;16266;50.866;4.398;2023-04-03T13:46:02;13.70;32.40
29237;DHT22;16266;50.866;4.398;2023-04-03T13:48:51;13.60;33.00
29237;DHT22;16266;50.866;4.398;2023-04-03T13:51:24;13.30;34.10
29237;DHT22;16266;50.866;4.398;2023-04-03T13:53:55;13.10;34.80
29237;DHT22;16266;50.866;4.398;2023-04-03T13:58:58;13.10;35.00
29237;DHT22;16266;50.866;4.398;2023-04-03T14:01:25;12.80;34.70
29237;DHT22;16266;50.866;4.398;2023-04-03T14:04:00;12.80;36.50
29237;DHT22;16266;50.866;4.398;2023-04-03T14:06:26;12.70;36.40
29237;DHT22;16266;50.866;4.398;2023-04-03T14:08:52;12.50;35.80
29237;DHT22;16266;50.866;4.398;2023-04-03T14:11:24;12.20;34.90
29237;DHT22;16266;50.866;4.398;2023-04-03T14:13:53;12.20;36.40
29237;DHT22;16266;50.866;4.398;2023-04-03T14:16:21;12.10;38.00
29237;DHT22;16266;50.866;4.398;2023-04-03T14:18:49;11.90;37.60
29237;DHT22;16266;50.866;4.398;2023-04-03T14:21:17;11.70;36.90
29237;DHT22;16266;50.866;4.398;2023-04-03T14:23:43;11.60;37.10
29237;DHT22;16266;50.866;4.398;2023-04-03T14:26:14;11.60;38.50
29237;DHT22;16266;50.866;4.398;2023-04-03T14:28:42;11.40;39.70
29237;DHT22;16266;50.866;4.398;2023-04-03T14:31:11;11.20;39.50
29237;DHT22;16266;50.866;4.398;2023-04-03T14:33:37;11.10;38.10
29237;DHT22;16266;50.866;4.398;2023-04-03T14:36:15;11.10;38.80
29237;DHT22;16266;50.866;4.398;2023-04-03T14:38:42;11.00;39.70
29237;DHT22;16266;50.866;4.398;2023-04-03T14:41:12;10.90;39.90
29237;DHT22;16266;50.866;4.398;2023-04-03T14:43:37;10.90;40.60
29237;DHT22;16266;50.866;4.398;2023-04-03T14:46:09;10.80;41.10
29237;DHT22;16266;50.866;4.398;2023-04-03T14:48:36;10.90;40.80
29237;DHT22;16266;50.866;4.398;2023-04-03T14:51:02;10.90;42.30
29237;DHT22;16266;50.866;4.398;2023-04-03T14:53:27;10.80;42.80
29237;DHT22;16266;50.866;4.398;2023-04-03T14:55:55;10.70;42.40
29237;DHT22;16266;50.866;4.398;2023-04-03T14:58:20;10.70;42.00
29237;DHT22;16266;50.866;4.398;2023-04-03T15:00:47;10.60;43.60
29237;DHT22;16266;50.866;4.398;2023-04-03T15:03:18;10.60;43.50
29237;DHT22;16266;50.866;4.398;2023-04-03T15:05:45;10.60;44.20
29237;DHT22;16266;50.866;4.398;2023-04-03T15:08:20;10.60;42.50
29237;DHT22;16266;50.866;4.398;2023-04-03T15:10:46;10.50;41.10
29237;DHT22;16266;50.866;4.398;2023-04-03T15:13:12;10.50;40.20
29237;DHT22;16266;50.866;4.398;2023-04-03T15:15:38;10.50;42.10
29237;DHT22;16266;50.866;4.398;2023-04-03T15:18:04;10.60;41.60
29237;DHT22;16266;50.866;4.398;2023-04-03T15:20:30;10.60;42.90
29237;DHT22;16266;50.866;4.398;2023-04-03T15:22:59;10.60;42.50
29237;DHT22;16266;50.866;4.398;2023-04-03T15:25:28;10.60;41.00
29237;DHT22;16266;50.866;4.398;2023-04-03T15:27:55;10.50;40.20
29237;DHT22;16266;50.866;4.398;2023-04-03T15:30:21;10.40;40.10
29237;DHT22;16266;50.866;4.398;2023-04-03T15:32:47;10.30;40.90
29237;DHT22;16266;50.866;4.398;2023-04-03T15:35:14;10.20;39.90
29237;DHT22;16266;50.866;4.398;2023-04-03T15:37:39;10.10;40.50
29237;DHT22;16266;50.866;4.398;2023-04-03T15:40:06;10.10;41.50
29237;DHT22;16266;50.866;4.398;2023-04-03T15:42:32;10.10;42.10
29237;DHT22;16266;50.866;4.398;2023-04-03T15:44:58;10.10;41.80
29237;DHT22;16266;50.866;4.398;2023-04-03T15:47:25;10.20;40.70
29237;DHT22;16266;50.866;4.398;2023-04-03T15:49:51;10.10;42.30
29237;DHT22;16266;50.866;4.398;2023-04-03T15:52:16;10.10;42.80
29237;DHT22;16266;50.866;4.398;2023-04-03T15:54:42;10.10;43.30
29237;DHT22;16266;50.866;4.398;2023-04-03T15:57:08;10.10;43.90
29237;DHT22;16266;50.866;4.398;2023-04-03T15:59:33;10.10;44.00
29237;DHT22;16266;50.866;4.398;2023-04-03T16:02:00;10.10;45.00
29237;DHT22;16266;50.866;4.398;2023-04-03T16:04:26;10.00;44.80
29237;DHT22;16266;50.866;4.398;2023-04-03T16:06:52;10.00;44.30
29237;DHT22;16266;50.866;4.398;2023-04-03T16:09:18;10.00;43.20
29237;DHT22;16266;50.866;4.398;2023-04-03T16:11:44;9.90;44.60
29237;DHT22;16266;50.866;4.398;2023-04-03T16:14:09;9.90;46.00
29237;DHT22;16266;50.866;4.398;2023-04-03T16:16:36;9.80;47.00
29237;DHT22;16266;50.866;4.398;2023-04-03T16:19:02;9.80;47.30
29237;DHT22;16266;50.866;4.398;2023-04-03T16:21:28;9.90;47.30
29237;DHT22;16266;50.866;4.398;2023-04-03T16:23:57;9.80;47.40
29237;DHT22;16266;50.866;4.398;2023-04-03T16:26:23;9.80;48.10
29237;DHT22;16266;50.866;4.398;2023-04-03T16:28:48;9.70;49.10
29237;DHT22;16266;50.866;4.398;2023-04-03T16:31:15;9.80;49.70
29237;DHT22;16266;50.866;4.398;2023-04-03T16:33:41;9.70;49.60
29237;DHT22;16266;50.866;4.398;2023-04-03T16:36:06;9.70;50.60
29237;DHT22;16266;50.866;4.398;2023-04-03T16:38:32;9.70;51.40
29237;DHT22;16266;50.866;4.398;2023-04-03T16:40:58;9.70;51.10
29237;DHT22;16266;50.866;4.398;2023-04-03T16:43:27;9.60;52.80
29237;DHT22;16266;50.866;4.398;2023-04-03T16:45:53;9.60;52.80
29237;DHT22;16266;50.866;4.398;2023-04-03T16:48:19;9.60;52.50
29237;DHT22;16266;50.866;4.398;2023-04-03T16:50:49;9.50;52.60
29237;DHT22;16266;50.866;4.398;2023-04-03T16:53:17;9.60;54.20
29237;DHT22;16266;50.866;4.398;2023-04-03T16:55:43;9.60;54.90
29237;DHT22;16266;50.866;4.398;2023-04-03T16:58:08;9.50;55.50
29237;DHT22;16266;50.866;4.398;2023-04-03T17:00:35;9.50;55.50
29237;DHT22;16266;50.866;4.398;2023-04-03T17:03:01;9.50;54.50
29237;DHT22;16266;50.866;4.398;2023-04-03T17:05:27;9.40;54.80
29237;DHT22;16266;50.866;4.398;2023-04-03T17:07:53;9.40;55.50
29237;DHT22;16266;50.866;4.398;2023-04-03T17:10:18;9.40;55.00
29237;DHT22;16266;50.866;4.398;2023-04-03T17:12:44;9.40;54.90
29237;DHT22;16266;50.866;4.398;2023-04-03T17:15:10;9.30;55.80
29237;DHT22;16266;50.866;4.398;2023-04-03T17:17:36;9.30;57.20
29237;DHT22;16266;50.866;4.398;2023-04-03T17:20:02;9.20;58.40
29237;DHT22;16266;50.866;4.398;2023-04-03T17:22:29;9.20;59.70
29237;DHT22;16266;50.866;4.398;2023-04-03T17:24:55;9.20;58.20
29237;DHT22;16266;50.866;4.398;2023-04-03T17:27:22;9.10;58.50
29237;DHT22;16266;50.866;4.398;2023-04-03T17:29:47;9.10;58.50
29237;DHT22;16266;50.866;4.398;2023-04-03T17:32:13;9.00;58.80